createdAt,value
2019-04-23T00:01:16.493Z,15.50
2019-04-23T00:03:41.600Z,15.50
2019-04-23T00:06:15.264Z,15.50
2019-04-23T00:11:17.101Z,15.50
2019-04-23T00:13:45.353Z,15.50
2019-04-23T00:16:15.429Z,15.50
2019-04-23T00:18:42.291Z,15.50
2019-04-23T00:26:47.516Z,15.50
2019-04-23T00:29:05.372Z,15.50
2019-04-23T00:31:31.153Z,15.40
2019-04-23T00:34:02.243Z,15.40
2019-04-23T00:39:01.374Z,15.40
2019-04-23T00:41:39.135Z,15.30
2019-04-23T00:46:36.843Z,15.40
2019-04-23T00:51:36.845Z,15.40
2019-04-23T00:54:05.923Z,15.30
2019-04-23T00:56:52.639Z,15.30
2019-04-23T00:59:08.379Z,15.30
2019-04-23T01:01:42.734Z,15.30
2019-04-23T01:04:07.102Z,15.30
2019-04-23T01:06:39.017Z,15.30
2019-04-23T01:09:08.876Z,15.20
2019-04-23T01:11:41.863Z,15.20
2019-04-23T01:14:08.255Z,15.20
2019-04-23T01:16:38.242Z,15.30
2019-04-23T01:21:57.946Z,15.40
2019-04-23T01:24:52.992Z,15.30
2019-04-23T01:30:19.866Z,15.40
2019-04-23T01:32:54.750Z,15.40
2019-04-23T01:35:26.953Z,15.40
2019-04-23T01:37:55.693Z,15.50
2019-04-23T01:40:32.001Z,15.50
2019-04-23T01:43:01.724Z,15.50
2019-04-23T01:45:26.969Z,15.50
2019-04-23T01:48:12.875Z,15.50
2019-04-23T01:50:37.633Z,15.40
2019-04-23T01:53:13.776Z,15.40
2019-04-23T01:55:36.464Z,15.40
2019-04-23T01:58:20.707Z,15.40
2019-04-23T02:00:34.175Z,15.40
2019-04-23T02:05:35.020Z,15.30
2019-04-23T02:10:49.092Z,15.30
2019-04-23T02:15:42.448Z,15.20
2019-04-23T02:18:18.156Z,15.20
2019-04-23T02:20:50.977Z,15.20
2019-04-23T02:23:31.259Z,15.10
2019-04-23T02:26:12.952Z,15.10
2019-04-23T02:28:36.605Z,15.10
2019-04-23T02:31:29.695Z,15.00
2019-04-23T02:33:44.636Z,15.00
2019-04-23T02:38:45.195Z,14.90
2019-04-23T02:41:26.578Z,14.80
2019-04-23T02:43:44.268Z,14.80
2019-04-23T02:46:08.023Z,14.80
2019-04-23T02:48:45.865Z,14.70
2019-04-23T02:51:10.983Z,14.70
2019-04-23T02:54:04.012Z,14.60
2019-04-23T02:58:57.696Z,14.60
2019-04-23T03:03:49.717Z,14.40
2019-04-23T03:06:20.802Z,14.40
2019-04-23T03:08:47.125Z,14.40
2019-04-23T03:11:26.728Z,14.30
2019-04-23T03:16:38.095Z,14.30
2019-04-23T03:24:55.090Z,14.20
2019-04-23T03:42:24.045Z,14.00
2019-04-23T03:47:32.622Z,14.00
2019-04-23T03:50:15.310Z,14.00
2019-04-23T03:54:51.644Z,13.90
2019-04-23T03:57:30.982Z,13.90
2019-04-23T04:00:03.830Z,13.90
2019-04-23T04:02:40.326Z,13.90
2019-04-23T04:15:31.192Z,13.90
2019-04-23T04:17:26.728Z,13.90
2019-04-23T04:20:15.269Z,13.80
2019-04-23T04:25:14.371Z,13.80
2019-04-23T04:30:10.686Z,13.70
2019-04-23T04:32:51.043Z,13.70
2019-04-23T04:37:52.870Z,13.70
2019-04-23T04:42:46.806Z,13.60
2019-04-23T04:45:22.815Z,13.60
2019-04-23T04:50:08.173Z,13.50
2019-04-23T04:52:46.941Z,13.50
2019-04-23T04:55:21.056Z,13.50
2019-04-23T04:57:52.676Z,13.40
2019-04-23T05:00:30.105Z,13.40
2019-04-23T05:03:04.251Z,13.40
2019-04-23T05:05:38.041Z,13.40
2019-04-23T05:10:29.677Z,13.30
2019-04-23T05:13:06.246Z,13.30
2019-04-23T05:15:35.269Z,13.30
2019-04-23T05:21:01.906Z,13.30
2019-04-23T05:23:42.788Z,13.30
2019-04-23T05:26:19.228Z,13.30
2019-04-23T05:28:57.166Z,13.30
2019-04-23T05:31:18.688Z,13.30
2019-04-23T05:33:49.296Z,13.30
2019-04-23T05:41:22.232Z,13.30
2019-04-23T05:43:46.459Z,13.40
2019-04-23T05:48:53.180Z,13.50
2019-04-23T05:51:33.520Z,13.50
2019-04-23T05:56:21.229Z,13.50
2019-04-23T05:58:53.032Z,13.50
2019-04-23T06:01:49.282Z,13.60
2019-04-23T06:04:04.063Z,13.60
2019-04-23T06:06:37.829Z,13.60
2019-04-23T06:08:58.415Z,13.60
2019-04-23T06:11:37.018Z,13.70
2019-04-23T06:16:36.066Z,13.70
2019-04-23T06:19:09.624Z,13.80
2019-04-23T06:21:34.599Z,13.80
2019-04-23T06:26:49.257Z,14.00
2019-04-23T06:29:07.106Z,14.00
2019-04-23T06:31:40.751Z,14.10
2019-04-23T06:34:03.849Z,14.20
2019-04-23T06:36:32.421Z,14.20
2019-04-23T06:39:02.773Z,14.20
2019-04-23T06:41:41.818Z,14.30
2019-04-23T06:46:51.547Z,14.40
2019-04-23T06:49:21.944Z,14.40
2019-04-23T06:51:51.861Z,14.50
2019-04-23T06:54:18.581Z,14.50
2019-04-23T06:57:00.702Z,14.60
2019-04-23T07:01:59.743Z,14.70
2019-04-23T07:04:32.766Z,14.70
2019-04-23T07:07:21.715Z,14.80
2019-04-23T07:09:20.579Z,14.80
2019-04-23T07:11:47.885Z,14.80
2019-04-23T07:14:31.951Z,14.90
2019-04-23T07:16:52.571Z,14.90
2019-04-23T07:22:04.721Z,14.90
2019-04-23T07:24:28.823Z,14.90
2019-04-23T07:26:52.818Z,15.00
2019-04-23T07:29:31.353Z,15.00
2019-04-23T07:34:29.895Z,15.10
2019-04-23T07:37:08.810Z,15.20
2019-04-23T07:40:12.997Z,15.20
2019-04-23T07:42:39.433Z,15.30
2019-04-23T07:48:11.957Z,15.50
2019-04-23T08:00:45.505Z,16.00
2019-04-23T08:05:43.959Z,16.10
2019-04-23T08:08:41.770Z,16.10
2019-04-23T08:11:18.062Z,16.20
2019-04-23T08:13:30.975Z,16.30
2019-04-23T08:16:13.729Z,16.30
2019-04-23T08:18:49.418Z,16.30
2019-04-23T08:21:07.146Z,16.40
2019-04-23T08:23:56.910Z,16.50
2019-04-23T08:29:13.936Z,16.60
2019-04-23T08:34:25.655Z,16.70
2019-04-23T08:36:50.114Z,16.90
2019-04-23T08:39:18.259Z,17.00
2019-04-23T08:42:12.353Z,17.20
2019-04-23T08:44:47.624Z,17.40
2019-04-23T08:47:15.593Z,17.50
2019-04-23T08:52:15.624Z,17.50
2019-04-23T08:54:49.853Z,17.50
2019-04-23T08:59:44.056Z,17.50
2019-04-23T09:02:26.603Z,17.50
2019-04-23T09:04:50.253Z,17.50
2019-04-23T09:07:16.672Z,17.50
2019-04-23T09:09:51.056Z,17.60
2019-04-23T09:12:16.733Z,17.60
2019-04-23T09:14:45.051Z,17.60
2019-04-23T09:17:34.801Z,17.70
2019-04-23T09:20:08.117Z,17.80
2019-04-23T09:22:20.863Z,17.80
2019-04-23T09:24:47.067Z,17.80
2019-04-23T09:27:22.169Z,18.00
2019-04-23T09:30:07.209Z,18.10
2019-04-23T09:32:26.658Z,18.10
2019-04-23T09:35:15.594Z,18.20
2019-04-23T09:41:15.710Z,18.30
2019-04-23T09:43:47.130Z,18.30
2019-04-23T09:46:23.585Z,18.30
2019-04-23T09:48:58.262Z,18.40
2019-04-23T09:51:32.782Z,18.40
2019-04-23T09:53:57.718Z,18.50
2019-04-23T09:56:30.539Z,18.50
2019-04-23T09:59:01.199Z,18.70
2019-04-23T10:03:47.933Z,19.10
2019-04-23T10:06:12.678Z,19.40
2019-04-23T10:08:43.052Z,19.50
2019-04-23T10:11:09.511Z,19.60
2019-04-23T10:13:38.681Z,19.60
2019-04-23T10:16:10.286Z,19.70
2019-04-23T10:18:39.355Z,19.60
2019-04-23T10:21:08.852Z,19.60
2019-04-23T10:23:39.092Z,19.60
2019-04-23T10:26:08.047Z,19.60
2019-04-23T10:28:52.000Z,19.50
2019-04-23T10:31:20.980Z,19.50
2019-04-23T10:33:50.493Z,19.40
2019-04-23T10:36:21.929Z,19.30
2019-04-23T10:38:59.757Z,19.30
2019-04-23T10:41:20.241Z,19.30
2019-04-23T10:43:56.182Z,19.20
2019-04-23T10:47:26.998Z,19.20
2019-04-23T10:52:28.094Z,19.10
2019-04-23T11:00:13.766Z,19.10
2019-04-23T11:05:16.374Z,19.00
2019-04-23T11:07:31.044Z,19.00
2019-04-23T11:10:07.225Z,19.10
2019-04-23T11:12:46.170Z,19.10
2019-04-23T11:15:50.617Z,19.30
2019-04-23T11:17:47.795Z,19.30
2019-04-23T11:20:30.015Z,19.40
2019-04-23T11:27:58.552Z,19.70
2019-04-23T11:33:05.038Z,19.70
2019-04-23T11:40:25.461Z,19.80
2019-04-23T11:53:02.679Z,20.20
2019-04-23T12:00:46.304Z,20.40
2019-04-23T12:03:17.802Z,20.60
2019-04-23T12:06:25.075Z,20.70
2019-04-23T12:09:18.359Z,20.80
2019-04-23T12:14:29.152Z,21.00
2019-04-23T12:17:09.639Z,21.10
2019-04-23T12:22:01.488Z,21.50
2019-04-23T12:27:00.865Z,22.00
2019-04-23T12:29:33.018Z,22.20
2019-04-23T12:32:40.577Z,22.40
2019-04-23T12:37:28.607Z,22.70
2019-04-23T12:40:00.765Z,22.90
2019-04-23T12:42:48.534Z,23.00
2019-04-23T12:55:08.685Z,23.50
2019-04-23T12:59:58.363Z,23.40
2019-04-23T13:02:38.321Z,23.40
2019-04-23T13:05:00.498Z,23.40
2019-04-23T13:07:43.554Z,23.40
2019-04-23T13:10:13.192Z,23.40
2019-04-23T13:17:44.559Z,23.20
2019-04-23T13:20:15.551Z,23.20
2019-04-23T13:22:49.481Z,23.20
2019-04-23T13:25:35.153Z,23.30
2019-04-23T13:30:44.785Z,23.40
2019-04-23T13:33:15.666Z,23.40
2019-04-23T13:35:50.608Z,23.30
2019-04-23T13:40:51.234Z,23.30
2019-04-23T13:43:12.201Z,23.30
2019-04-23T13:46:00.901Z,23.30
2019-04-23T13:53:21.068Z,23.30
2019-04-23T13:55:42.543Z,23.30
2019-04-23T13:58:30.172Z,23.20
2019-04-23T14:03:25.723Z,23.10
2019-04-23T14:13:51.024Z,22.80
2019-04-23T14:16:22.711Z,22.70
2019-04-23T14:26:29.403Z,22.50
2019-04-23T14:28:44.850Z,22.40
2019-04-23T14:33:58.471Z,22.40
2019-04-23T14:36:19.937Z,22.20
2019-04-23T14:38:49.507Z,22.10
2019-04-23T14:43:57.952Z,22.00
2019-04-23T14:46:36.617Z,22.00
2019-04-23T14:49:11.224Z,21.80
2019-04-23T14:51:32.256Z,21.80
2019-04-23T14:53:47.890Z,21.70
2019-04-23T14:56:22.550Z,21.60
2019-04-23T15:03:49.265Z,21.40
2019-04-23T15:06:38.022Z,21.40
2019-04-23T15:09:04.305Z,21.40
2019-04-23T15:14:03.559Z,21.30
2019-04-23T15:16:31.511Z,21.20
2019-04-23T15:19:34.993Z,21.10
2019-04-23T15:24:23.135Z,20.90
2019-04-23T15:29:02.784Z,20.80
2019-04-23T15:31:57.639Z,20.80
2019-04-23T15:34:30.553Z,20.80
2019-04-23T15:37:11.279Z,20.70
2019-04-23T15:39:24.290Z,20.70
2019-04-23T15:41:55.875Z,20.60
2019-04-23T15:44:16.103Z,20.50
2019-04-23T15:46:56.493Z,20.40
2019-04-23T15:49:30.455Z,20.40
2019-04-23T15:51:56.541Z,20.30
2019-04-23T15:54:25.384Z,20.20
2019-04-23T15:56:55.155Z,20.10
2019-04-23T15:59:36.498Z,20.00
2019-04-23T16:01:41.192Z,19.90
2019-04-23T16:03:59.109Z,19.80
2019-04-23T16:06:30.919Z,19.70
2019-04-23T16:09:16.024Z,19.70
2019-04-23T16:11:52.030Z,19.60
2019-04-23T16:14:32.954Z,19.50
2019-04-23T16:17:08.126Z,19.40
2019-04-23T16:20:09.295Z,19.30
2019-04-23T16:22:30.356Z,19.30
2019-04-23T16:27:20.236Z,19.10
2019-04-23T16:33:07.942Z,18.90
2019-04-23T16:38:10.258Z,18.70
2019-04-23T16:40:36.271Z,18.70
2019-04-23T16:43:03.541Z,18.60
2019-04-23T16:48:06.632Z,18.50
2019-04-23T16:50:41.549Z,18.40
2019-04-23T16:53:09.875Z,18.40
2019-04-23T16:55:37.877Z,18.30
2019-04-23T16:58:11.959Z,18.30
2019-04-23T17:05:42.756Z,18.10
2019-04-23T17:08:35.564Z,18.10
2019-04-23T17:10:48.719Z,18.00
2019-04-23T17:13:18.344Z,18.00
2019-04-23T17:20:51.983Z,17.70
2019-04-23T17:25:55.650Z,17.60
2019-04-23T17:28:28.215Z,17.60
2019-04-23T17:31:26.320Z,17.60
2019-04-23T17:33:41.621Z,17.60
2019-04-23T17:36:38.608Z,17.50
2019-04-23T17:39:36.793Z,17.40
2019-04-23T17:42:28.986Z,17.30
2019-04-23T17:45:26.452Z,17.30
2019-04-23T17:48:04.066Z,17.20
2019-04-23T17:50:34.045Z,17.10
2019-04-23T17:53:05.715Z,17.00
2019-04-23T17:55:31.404Z,16.90
2019-04-23T17:58:06.152Z,16.80
2019-04-23T18:00:40.607Z,16.70
2019-04-23T18:03:04.633Z,16.60
2019-04-23T18:05:40.880Z,16.60
2019-04-23T18:08:11.827Z,16.60
2019-04-23T18:11:06.005Z,16.50
2019-04-23T18:13:19.286Z,16.40
2019-04-23T18:15:49.659Z,16.40
2019-04-23T18:18:10.120Z,16.30
2019-04-23T18:21:21.489Z,16.30
2019-04-23T18:24:00.915Z,16.20
2019-04-23T18:26:46.235Z,16.20
2019-04-23T18:29:25.697Z,16.10
2019-04-23T18:32:13.025Z,16.10
2019-04-23T18:34:54.164Z,16.10
2019-04-23T18:37:10.699Z,16.00
2019-04-23T18:39:43.731Z,16.00
2019-04-23T18:42:21.470Z,15.90
2019-04-23T18:47:24.917Z,15.80
2019-04-23T18:52:29.480Z,15.70
2019-04-23T18:54:48.184Z,15.70
2019-04-23T18:57:40.341Z,15.60
2019-04-23T19:05:26.467Z,15.50
2019-04-23T19:08:42.240Z,15.50
2019-04-23T19:11:13.661Z,15.50
2019-04-23T19:13:44.715Z,15.40
2019-04-23T19:16:21.424Z,15.40
2019-04-23T19:18:56.819Z,15.40
2019-04-23T19:21:45.739Z,15.30
2019-04-23T19:23:57.545Z,15.30
2019-04-23T19:31:55.883Z,15.30
2019-04-23T19:34:40.725Z,15.30
2019-04-23T19:37:02.332Z,15.30
2019-04-23T19:39:40.218Z,15.30
2019-04-23T19:42:29.018Z,15.30
2019-04-23T19:49:48.457Z,15.20
2019-04-23T19:52:34.756Z,15.30
2019-04-23T19:54:59.933Z,15.20
2019-04-23T19:57:42.008Z,15.20
2019-04-23T20:00:02.566Z,15.20
2019-04-23T20:03:03.241Z,15.20
2019-04-23T20:05:13.474Z,15.20
2019-04-23T20:07:56.677Z,15.20
2019-04-23T20:10:21.812Z,15.20
2019-04-23T20:12:50.024Z,15.10
2019-04-23T20:15:30.933Z,15.10
2019-04-23T20:18:00.945Z,15.10
2019-04-23T20:20:42.123Z,15.10
2019-04-23T20:23:13.402Z,15.10
2019-04-23T20:26:05.589Z,15.10
2019-04-23T20:28:31.032Z,15.00
2019-04-23T20:36:05.089Z,15.00
2019-04-23T20:43:42.621Z,14.90
2019-04-23T20:46:08.287Z,14.90
2019-04-23T20:51:04.891Z,14.80
2019-04-23T20:53:43.036Z,14.80
2019-04-23T20:58:54.965Z,14.70
2019-04-23T21:01:38.281Z,14.80
2019-04-23T21:04:04.301Z,14.70
2019-04-23T21:06:39.129Z,14.70
2019-04-23T21:09:28.250Z,14.70
2019-04-23T21:11:40.626Z,14.60
2019-04-23T21:14:22.665Z,14.60
2019-04-23T21:19:05.816Z,14.60
2019-04-23T21:22:02.204Z,14.60
2019-04-23T21:24:36.508Z,14.60
2019-04-23T21:27:10.983Z,14.50
2019-04-23T21:29:46.848Z,14.50
2019-04-23T21:32:14.823Z,14.50
2019-04-23T21:34:43.817Z,14.40
2019-04-23T21:37:46.302Z,14.40
2019-04-23T21:45:31.907Z,14.30
2019-04-23T21:50:37.387Z,14.20
2019-04-23T21:55:32.237Z,14.20
2019-04-23T22:00:42.077Z,14.10
2019-04-23T22:03:11.540Z,14.10
2019-04-23T22:05:45.873Z,14.00
2019-04-23T22:08:02.775Z,14.00
2019-04-23T22:10:47.725Z,13.90
2019-04-23T22:18:09.456Z,13.80
2019-04-23T22:20:44.101Z,13.80
2019-04-23T22:23:11.305Z,13.80
2019-04-23T22:25:49.006Z,13.80
2019-04-23T22:28:11.434Z,13.70
2019-04-23T22:30:49.459Z,13.70
2019-04-23T22:35:49.732Z,13.60
2019-04-23T22:38:30.199Z,13.60
2019-04-23T22:40:53.360Z,13.50
2019-04-23T22:45:58.193Z,13.50
2019-04-23T22:48:17.847Z,13.40
2019-04-23T22:50:57.517Z,13.40
2019-04-23T22:53:13.982Z,13.40
2019-04-23T22:56:01.386Z,13.40
2019-04-23T22:58:11.422Z,13.30
2019-04-23T23:01:12.588Z,13.40
2019-04-23T23:03:47.984Z,13.30
2019-04-23T23:08:50.313Z,13.20
2019-04-23T23:13:52.174Z,13.20
2019-04-23T23:16:07.218Z,13.10
2019-04-23T23:18:40.783Z,13.10
2019-04-23T23:21:14.947Z,13.10
2019-04-23T23:23:39.380Z,13.10
2019-04-23T23:26:17.514Z,13.10
2019-04-23T23:28:40.796Z,13.00
2019-04-23T23:31:11.696Z,13.00
2019-04-23T23:33:47.097Z,13.00
2019-04-23T23:36:12.393Z,13.00
2019-04-23T23:38:52.381Z,12.90
2019-04-23T23:44:19.409Z,12.90
2019-04-23T23:48:48.363Z,12.80
2019-04-23T23:56:15.739Z,12.80
